Time;durP1;ratioP1;P1;durP2;ratioP2;P2;SDS_P1;SDS_P2;PMS_P1;PMS_P2;Temp;Humidity;BMP_temperature;BMP_pressure;BME280_temperature;BME280_humidity;BME280_pressure;Samples;Min_cycle;Max_cycle;Signal;HPM_P1;HPM_P2
2021/05/04 00:00:55;;;;;;;;;7.00;5.00;;;;;;;;3508204;40;113316;-69
2021/05/04 00:03:21;;;;;;;;;7.50;7.50;;;;;;;;3509107;39;113863;-70
2021/05/04 00:05:47;;;;;;;;;8.25;6.00;;;;;;;;3508362;40;112052;-69
2021/05/04 00:08:14;;;;;;;;;7.00;5.00;;;;;;;;3509982;40;113450;-69
2021/05/04 00:10:40;;;;;;;;;7.00;6.00;;;;;;;;3509730;40;113941;-69
2021/05/04 00:13:06;;;;;;;;;5.00;5.00;;;;;;;;3511308;39;112240;-70
2021/05/04 00:15:32;;;;;;;;;5.00;5.00;;;;;;;;3509078;40;113844;-69
2021/05/04 00:17:59;;;;;;;;;5.25;5.25;;;;;;;;3509213;39;111866;-69
2021/05/04 00:20:25;;;;;;;;;11.00;8.25;;;;;;;;3508804;40;113599;-69
2021/05/04 00:22:51;;;;;;;;;5.25;5.25;;;;;;;;3509166;40;113534;-69
2021/05/04 00:25:18;;;;;;;;;7.75;7.00;;;;;;;;3506498;40;112139;-70
2021/05/04 00:27:45;;;;;;;;;8.50;7.50;;;;;;;;3509999;39;113179;-70
2021/05/04 00:30:12;;;;;;;;;7.00;7.00;;;;;;;;3507474;40;113784;-69
2021/05/04 00:32:39;;;;;;;;;8.00;7.00;;;;;;;;3508522;39;112074;-70
2021/05/04 00:35:05;;;;;;;;;8.00;5.00;;;;;;;;3510340;40;113795;-71
2021/05/04 00:37:31;;;;;;;;;5.50;5.00;;;;;;;;3509307;40;112002;-69
2021/05/04 00:39:57;;;;;;;;;8.75;7.00;;;;;;;;3509029;39;113286;-70
2021/05/04 00:42:25;;;;;;;;;6.00;4.00;;;;;;;;3508994;39;113899;-69
2021/05/04 00:44:51;;;;;;;;;7.75;6.00;;;;;;;;3508673;40;111782;-70
2021/05/04 00:47:17;;;;;;;;;10.00;6.25;;;;;;;;3509554;39;113569;-69
2021/05/04 00:49:43;;;;;;;;;5.50;5.50;;;;;;;;3507503;40;114497;-70
2021/05/04 00:52:10;;;;;;;;;3.50;3.50;;;;;;;;3509734;40;112566;-69
2021/05/04 00:54:36;;;;;;;;;5.25;4.00;;;;;;;;3508610;39;113016;-70
2021/05/04 00:57:03;;;;;;;;;8.00;7.00;;;;;;;;3511437;40;114431;-70
2021/05/04 00:59:30;;;;;;;;;5.25;5.25;;;;;;;;3508872;40;113098;-70
2021/05/04 01:01:56;;;;;;;;;5.75;5.75;;;;;;;;3508329;40;114346;-68
2021/05/04 01:04:23;;;;;;;;;8.25;6.00;;;;;;;;3509058;39;112477;-70
2021/05/04 01:06:49;;;;;;;;;9.75;8.25;;;;;;;;3508452;40;113214;-69
2021/05/04 01:09:15;;;;;;;;;6.50;6.50;;;;;;;;3509065;39;113773;-68
2021/05/04 01:11:42;;;;;;;;;6.25;5.75;;;;;;;;3508074;40;111924;-68
2021/05/04 01:14:08;;;;;;;;;9.00;7.00;;;;;;;;3509657;40;113812;-68
2021/05/04 01:16:35;;;;;;;;;6.75;6.75;;;;;;;;3507169;40;113898;-68
2021/05/04 01:19:01;;;;;;;;;7.00;7.00;;;;;;;;3511213;39;111930;-68
2021/05/04 01:21:28;;;;;;;;;6.25;6.25;;;;;;;;3508303;40;113721;-68
2021/05/04 01:23:54;;;;;;;;;3.75;3.75;;;;;;;;3509538;40;112183;-69
2021/05/04 01:26:21;;;;;;;;;8.00;7.00;;;;;;;;3508964;39;114030;-68
2021/05/04 01:28:47;;;;;;;;;6.50;6.50;;;;;;;;3507604;40;113645;-69
2021/05/04 01:31:13;;;;;;;;;7.25;6.00;;;;;;;;3509391;40;111861;-69
2021/05/04 01:33:39;;;;;;;;;7.75;6.75;;;;;;;;3507381;40;112976;-69
2021/05/04 01:36:05;;;;;;;;;6.50;5.00;;;;;;;;3507652;39;114311;-69
2021/05/04 01:38:32;;;;;;;;;6.00;6.00;;;;;;;;3512729;40;111909;-69
2021/05/04 01:40:58;;;;;;;;;4.00;4.00;;;;;;;;3508654;40;114291;-69
2021/05/04 01:43:24;;;;;;;;;5.00;3.00;;;;;;;;3508687;40;111888;-69
2021/05/04 01:45:50;;;;;;;;;7.75;6.00;;;;;;;;3508003;40;113134;-69
2021/05/04 01:48:16;;;;;;;;;6.00;6.00;;;;;;;;3508604;39;114108;-69
2021/05/04 01:50:42;;;;;;;;;4.50;4.00;;;;;;;;3507661;40;111837;-68
2021/05/04 01:53:09;;;;;;;;;5.50;5.00;;;;;;;;3509194;40;113699;-68
2021/05/04 01:55:36;;;;;;;;;7.50;6.00;;;;;;;;3507563;40;113973;-69
2021/05/04 01:58:02;;;;;;;;;7.50;7.50;;;;;;;;3508782;40;111954;-69
2021/05/04 02:00:28;;;;;;;;;6.25;6.25;;;;;;;;3510251;40;113532;-69
2021/05/04 02:02:54;;;;;;;;;4.00;4.00;;;;;;;;3509001;40;111855;-68
2021/05/04 02:05:20;;;;;;;;;6.00;6.00;;;;;;;;3510062;39;113577;-69
2021/05/04 02:07:46;;;;;;;;;4.00;4.00;;;;;;;;3508627;40;113907;-69
2021/05/04 02:10:12;;;;;;;;;7.00;4.00;;;;;;;;3510510;40;111756;-70
2021/05/04 02:12:39;;;;;;;;;6.50;6.50;;;;;;;;3508820;39;113200;-69
2021/05/04 02:15:06;;;;;;;;;5.00;5.00;;;;;;;;3509879;40;114209;-68
2021/05/04 02:17:32;;;;;;;;;7.75;6.00;;;;;;;;3509328;40;111905;-68
2021/05/04 02:19:58;;;;;;;;;8.50;7.00;;;;;;;;3509802;40;113540;-69
2021/05/04 02:22:24;;;;;;;;;7.50;5.00;;;;;;;;3511850;39;114116;-68
2021/05/04 02:24:50;;;;;;;;;6.50;6.00;;;;;;;;3508931;40;113518;-69
2021/05/04 02:27:16;;;;;;;;;6.75;6.00;;;;;;;;3508228;40;114116;-69
2021/05/04 02:29:43;;;;;;;;;6.00;6.00;;;;;;;;3510573;39;111788;-69
2021/05/04 02:32:09;;;;;;;;;6.75;6.75;;;;;;;;3508761;39;113220;-68
2021/05/04 02:34:35;;;;;;;;;9.00;5.00;;;;;;;;3510026;40;113800;-68
2021/05/04 02:37:01;;;;;;;;;6.25;6.00;;;;;;;;3509683;39;111852;-69
2021/05/04 02:39:27;;;;;;;;;8.75;6.25;;;;;;;;3510209;40;113975;-69
2021/05/04 02:41:53;;;;;;;;;6.00;3.75;;;;;;;;3509816;39;114013;-69
2021/05/04 02:44:19;;;;;;;;;7.75;6.00;;;;;;;;3512079;40;112220;-69
2021/05/04 02:46:46;;;;;;;;;11.25;7.00;;;;;;;;3511913;39;114495;-68
2021/05/04 02:49:12;;;;;;;;;4.50;4.50;;;;;;;;3508693;40;111955;-68
2021/05/04 02:51:38;;;;;;;;;9.75;4.00;;;;;;;;3510303;40;113776;-68
2021/05/04 02:54:05;;;;;;;;;6.00;4.50;;;;;;;;3508505;39;114669;-69
2021/05/04 02:56:31;;;;;;;;;5.00;5.00;;;;;;;;3508867;39;111876;-69
2021/05/04 02:58:57;;;;;;;;;7.00;7.00;;;;;;;;3509564;40;113475;-70
2021/05/04 03:01:23;;;;;;;;;6.25;6.25;;;;;;;;3508762;40;113843;-69
2021/05/04 03:03:50;;;;;;;;;7.75;7.00;;;;;;;;3507980;39;113182;-68
2021/05/04 03:06:16;;;;;;;;;6.00;5.50;;;;;;;;3510872;40;113466;-68
2021/05/04 03:08:42;;;;;;;;;7.50;5.00;;;;;;;;3510217;39;112441;-68
2021/05/04 03:11:08;;;;;;;;;7.75;6.25;;;;;;;;3508685;40;113268;-68
2021/05/04 03:13:34;;;;;;;;;6.25;6.25;;;;;;;;3508243;40;113950;-69
2021/05/04 03:16:01;;;;;;;;;8.00;6.75;;;;;;;;3509531;40;111954;-70
2021/05/04 03:18:27;;;;;;;;;8.00;6.00;;;;;;;;3492011;39;113714;-69
2021/05/04 03:20:54;;;;;;;;;5.50;5.50;;;;;;;;3537649;39;113740;-69
2021/05/04 03:23:21;;;;;;;;;7.00;5.50;;;;;;;;3536019;39;112647;-70
2021/05/04 03:25:47;;;;;;;;;8.00;6.00;;;;;;;;3536090;39;113518;-69
2021/05/04 03:28:13;;;;;;;;;5.00;3.25;;;;;;;;3539749;39;114218;-69
2021/05/04 03:30:39;;;;;;;;;7.25;7.00;;;;;;;;3535780;39;113414;-69
2021/05/04 03:33:06;;;;;;;;;5.75;5.75;;;;;;;;3536077;39;113926;-69
2021/05/04 03:35:32;;;;;;;;;7.00;5.75;;;;;;;;3536563;39;111928;-68
2021/05/04 03:38:00;;;;;;;;;5.50;5.50;;;;;;;;3537389;39;113441;-69
2021/05/04 03:40:26;;;;;;;;;7.00;6.50;;;;;;;;3536977;39;114287;-69
2021/05/04 03:42:52;;;;;;;;;6.75;6.75;;;;;;;;3536920;39;112725;-68
2021/05/04 03:45:18;;;;;;;;;12.25;10.50;;;;;;;;3537684;39;114371;-68
2021/05/04 03:47:45;;;;;;;;;9.00;7.50;;;;;;;;3538729;39;114053;-68
2021/05/04 03:50:12;;;;;;;;;6.75;6.25;;;;;;;;3536065;39;113477;-69
2021/05/04 03:52:38;;;;;;;;;7.75;7.75;;;;;;;;3521352;39;114556;-71
2021/05/04 03:55:06;;;;;;;;;12.25;9.50;;;;;;;;3518747;39;111775;-67
2021/05/04 03:57:32;;;;;;;;;7.50;7.00;;;;;;;;3518474;39;113351;-68
2021/05/04 03:59:58;;;;;;;;;10.50;8.75;;;;;;;;3519862;39;114267;-67
2021/05/04 04:02:25;;;;;;;;;7.75;7.75;;;;;;;;3516680;39;112644;-68
2021/05/04 04:04:51;;;;;;;;;7.50;7.00;;;;;;;;3518505;39;113024;-67
2021/05/04 04:07:17;;;;;;;;;7.00;7.00;;;;;;;;3518056;39;113782;-67
2021/05/04 04:09:43;;;;;;;;;7.00;6.00;;;;;;;;3520687;39;112002;-67
2021/05/04 04:12:10;;;;;;;;;7.00;6.00;;;;;;;;3513752;39;114003;-68
2021/05/04 04:14:36;;;;;;;;;9.50;8.00;;;;;;;;3519753;39;111947;-69
2021/05/04 04:17:02;;;;;;;;;12.00;9.25;;;;;;;;3517066;39;113272;-68
2021/05/04 04:19:28;;;;;;;;;9.50;7.50;;;;;;;;3516915;39;114140;-68
2021/05/04 04:21:54;;;;;;;;;10.00;10.00;;;;;;;;3517698;39;111745;-68
2021/05/04 04:24:20;;;;;;;;;6.25;6.25;;;;;;;;3518317;39;113337;-67
2021/05/04 04:26:46;;;;;;;;;12.00;7.75;;;;;;;;3517583;39;113936;-68
2021/05/04 04:29:13;;;;;;;;;6.25;6.25;;;;;;;;3515331;39;113183;-69
2021/05/04 04:31:41;;;;;;;;;11.50;9.50;;;;;;;;3522330;39;113371;-67
2021/05/04 04:34:07;;;;;;;;;7.00;6.00;;;;;;;;3518380;39;112985;-68
2021/05/04 04:36:33;;;;;;;;;11.00;6.25;;;;;;;;3516994;39;112578;-67
2021/05/04 04:38:59;;;;;;;;;9.00;7.50;;;;;;;;3518922;39;113767;-69
2021/05/04 04:41:25;;;;;;;;;10.75;10.00;;;;;;;;3520018;39;112161;-68
2021/05/04 04:43:51;;;;;;;;;11.00;10.00;;;;;;;;3519256;39;113408;-69
2021/05/04 04:46:18;;;;;;;;;8.67;8.00;;;;;;;;3519161;39;114676;-68
2021/05/04 04:48:44;;;;;;;;;8.25;7.00;;;;;;;;3518628;39;112304;-68
2021/05/04 04:51:10;;;;;;;;;7.50;6.75;;;;;;;;3519226;39;113896;-68
2021/05/04 04:53:36;;;;;;;;;7.25;6.00;;;;;;;;3518517;39;113174;-69
2021/05/04 04:56:03;;;;;;;;;11.00;11.00;;;;;;;;3518354;39;113234;-68
2021/05/04 04:58:29;;;;;;;;;8.00;8.00;;;;;;;;3519226;39;114263;-69
2021/05/04 05:00:55;;;;;;;;;11.33;10.67;;;;;;;;3517703;39;113061;-69
2021/05/04 05:03:24;;;;;;;;;8.00;8.00;;;;;;;;3518326;39;113204;-68
2021/05/04 05:05:50;;;;;;;;;10.67;10.00;;;;;;;;3515493;39;113799;-69
2021/05/04 05:08:16;;;;;;;;;6.00;6.00;;;;;;;;3516075;39;112122;-68
2021/05/04 05:10:42;;;;;;;;;7.00;7.00;;;;;;;;3515914;39;113334;-70
2021/05/04 05:13:08;;;;;;;;;8.00;7.00;;;;;;;;3516316;39;114316;-69
2021/05/04 05:15:39;;;;;;;;;7.75;7.00;;;;;;;;3520194;39;112240;-69
2021/05/04 05:18:05;;;;;;;;;8.00;6.25;;;;;;;;3515926;39;114482;-71
2021/05/04 05:20:32;;;;;;;;;7.75;7.75;;;;;;;;3515446;39;113214;-68
2021/05/04 05:22:59;;;;;;;;;8.50;8.50;;;;;;;;3518320;39;113399;-71
2021/05/04 05:25:25;;;;;;;;;8.00;8.00;;;;;;;;3517932;39;113853;-70
2021/05/04 05:27:51;;;;;;;;;11.50;8.25;;;;;;;;3518069;39;112238;-68
2021/05/04 05:30:17;;;;;;;;;8.25;7.00;;;;;;;;3518246;39;113376;-68
2021/05/04 05:32:43;;;;;;;;;10.00;9.00;;;;;;;;3518321;39;113945;-68
2021/05/04 05:35:10;;;;;;;;;11.75;10.00;;;;;;;;3517962;39;111910;-68
2021/05/04 05:37:36;;;;;;;;;11.00;9.00;;;;;;;;3519171;39;113050;-69
2021/05/04 05:40:03;;;;;;;;;10.00;8.50;;;;;;;;3519199;39;112254;-70
2021/05/04 05:42:29;;;;;;;;;10.25;9.00;;;;;;;;3519371;39;113623;-70
2021/05/04 05:44:55;;;;;;;;;12.00;8.75;;;;;;;;3514779;39;112906;-69
2021/05/04 05:47:21;;;;;;;;;13.00;9.00;;;;;;;;3519719;39;112560;-70
2021/05/04 05:49:47;;;;;;;;;7.25;7.25;;;;;;;;3520918;39;113436;-70
2021/05/04 05:52:13;;;;;;;;;9.50;8.00;;;;;;;;3512393;39;112710;-68
2021/05/04 05:54:40;;;;;;;;;13.25;12.00;;;;;;;;3517992;39;112390;-71
2021/05/04 05:57:06;;;;;;;;;15.67;13.33;;;;;;;;3521504;39;113414;-72
2021/05/04 05:59:32;;;;;;;;;10.75;9.00;;;;;;;;3518586;39;112147;-71
2021/05/04 06:01:59;;;;;;;;;11.25;9.75;;;;;;;;3519236;39;113243;-74
2021/05/04 06:04:25;;;;;;;;;8.75;5.50;;;;;;;;3518137;39;114168;-69
2021/05/04 06:06:51;;;;;;;;;8.00;8.00;;;;;;;;3518608;39;113558;-70
2021/05/04 06:09:17;;;;;;;;;9.25;7.75;;;;;;;;3517750;39;113297;-72
2021/05/04 06:11:44;;;;;;;;;11.50;11.00;;;;;;;;3519963;39;113887;-73
2021/05/04 06:14:11;;;;;;;;;12.75;11.25;;;;;;;;3522200;39;111818;-76
2021/05/04 06:16:37;;;;;;;;;7.00;7.00;;;;;;;;3520491;39;113367;-67
2021/05/04 06:19:03;;;;;;;;;10.00;9.50;;;;;;;;3520998;39;113914;-67
2021/05/04 06:21:30;;;;;;;;;12.00;10.75;;;;;;;;3519786;39;113321;-68
2021/05/04 06:23:56;;;;;;;;;19.25;15.75;;;;;;;;3518960;39;113895;-67
2021/05/04 06:26:22;;;;;;;;;54.33;35.33;;;;;;;;3519003;39;111943;-68
2021/05/04 06:28:50;;;;;;;;;20.00;16.25;;;;;;;;3518839;39;112623;-69
2021/05/04 06:31:16;;;;;;;;;16.25;11.25;;;;;;;;3518164;39;115157;-71
2021/05/04 06:33:43;;;;;;;;;10.75;10.50;;;;;;;;3520372;39;113615;-70
2021/05/04 06:36:09;;;;;;;;;11.75;11.00;;;;;;;;3517167;39;113616;-70
2021/05/04 06:38:35;;;;;;;;;12.75;12.75;;;;;;;;3519530;39;113716;-71
2021/05/04 06:41:02;;;;;;;;;40.33;31.67;;;;;;;;3521594;39;111904;-72
2021/05/04 06:43:28;;;;;;;;;93.25;63.50;;;;;;;;3518795;39;114285;-71
2021/05/04 06:45:55;;;;;;;;;14.25;11.00;;;;;;;;3516470;39;111863;-71
2021/05/04 06:48:21;;;;;;;;;13.00;13.00;;;;;;;;3518917;39;113381;-70
2021/05/04 06:50:47;;;;;;;;;12.00;12.00;;;;;;;;3517979;39;114653;-71
2021/05/04 06:53:13;;;;;;;;;12.25;12.25;;;;;;;;3517389;39;112389;-71
2021/05/04 06:55:40;;;;;;;;;15.00;14.25;;;;;;;;3518543;39;113607;-70
2021/05/04 06:58:06;;;;;;;;;13.25;12.25;;;;;;;;3516005;39;112773;-72
2021/05/04 07:00:32;;;;;;;;;25.50;15.00;;;;;;;;3518822;39;111872;-71
2021/05/04 07:03:03;;;;;;;;;17.50;14.50;;;;;;;;3521658;39;113796;-71
2021/05/04 07:05:29;;;;;;;;;21.25;13.00;;;;;;;;3518944;39;111782;-71
2021/05/04 07:07:55;;;;;;;;;31.00;22.00;;;;;;;;3519186;39;113268;-70
2021/05/04 07:10:21;;;;;;;;;23.75;17.50;;;;;;;;3517528;39;114232;-73
2021/05/04 07:12:48;;;;;;;;;16.00;14.00;;;;;;;;3519774;39;113112;-75
2021/05/04 07:15:14;;;;;;;;;16.50;14.75;;;;;;;;3519231;39;113430;-73
2021/05/04 07:17:40;;;;;;;;;18.25;16.75;;;;;;;;3519829;39;114017;-73
2021/05/04 07:20:08;;;;;;;;;14.00;14.00;;;;;;;;3518475;39;112117;-72
2021/05/04 07:22:35;;;;;;;;;15.50;14.75;;;;;;;;3519848;39;113449;-74
2021/05/04 07:25:02;;;;;;;;;14.50;14.00;;;;;;;;3520959;39;114206;-73
2021/05/04 07:27:28;;;;;;;;;16.50;15.00;;;;;;;;3519302;39;114236;-72
2021/05/04 07:29:54;;;;;;;;;16.00;14.50;;;;;;;;3519522;39;113972;-71
2021/05/04 07:32:20;;;;;;;;;14.00;11.50;;;;;;;;3519523;39;112603;-73
2021/05/04 07:34:46;;;;;;;;;19.75;15.25;;;;;;;;3515517;39;112279;-72
2021/05/04 07:37:13;;;;;;;;;15.75;13.75;;;;;;;;3519584;39;113799;-70
2021/05/04 07:39:40;;;;;;;;;11.50;11.25;;;;;;;;3518384;39;111869;-69
2021/05/04 07:42:06;;;;;;;;;13.75;13.00;;;;;;;;3519681;39;114309;-68
2021/05/04 07:44:32;;;;;;;;;13.00;13.00;;;;;;;;3518014;39;114505;-68
2021/05/04 07:46:58;;;;;;;;;14.50;12.75;;;;;;;;3522017;39;112390;-70
2021/05/04 07:49:34;;;;;;;;;14.50;12.00;;;;;;;;3520339;39;114713;-72
2021/05/04 07:52:00;;;;;;;;;11.25;11.00;;;;;;;;3519422;39;111840;-71
2021/05/04 07:54:27;;;;;;;;;13.75;12.25;;;;;;;;3517305;39;113611;-74
2021/05/04 07:56:53;;;;;;;;;9.75;9.75;;;;;;;;3514889;39;113670;-74
2021/05/04 07:59:19;;;;;;;;;10.00;10.00;;;;;;;;3514967;39;112461;-74
2021/05/04 08:01:45;;;;;;;;;12.50;9.75;;;;;;;;3513953;40;113370;-70
2021/05/04 08:04:12;;;;;;;;;13.00;11.25;;;;;;;;3513495;40;114006;-70
2021/05/04 08:06:38;;;;;;;;;17.50;11.50;;;;;;;;3520607;39;113453;-69
2021/05/04 08:09:04;;;;;;;;;10.50;9.50;;;;;;;;3517782;39;114405;-69
2021/05/04 08:11:32;;;;;;;;;12.50;12.00;;;;;;;;3519455;39;111986;-69
2021/05/04 08:13:58;;;;;;;;;12.50;11.00;;;;;;;;3513761;39;112313;-70
2021/05/04 08:16:24;;;;;;;;;13.00;12.75;;;;;;;;3518230;39;114353;-69
2021/05/04 08:18:52;;;;;;;;;8.00;7.00;;;;;;;;3519412;39;111936;-70
2021/05/04 08:21:19;;;;;;;;;10.75;9.75;;;;;;;;3520420;39;113395;-68
2021/05/04 08:23:46;;;;;;;;;10.00;8.75;;;;;;;;3518023;39;113935;-71
2021/05/04 08:26:12;;;;;;;;;9.25;8.00;;;;;;;;3519922;39;112242;-75
2021/05/04 08:28:39;;;;;;;;;8.00;8.00;;;;;;;;3521797;39;112141;-70
2021/05/04 08:31:05;;;;;;;;;8.25;8.25;;;;;;;;3518106;39;112033;-71
2021/05/04 08:33:31;;;;;;;;;8.00;8.00;;;;;;;;3515482;39;112589;-72
2021/05/04 08:35:57;;;;;;;;;8.00;7.00;;;;;;;;3518515;39;113956;-69
2021/05/04 08:38:23;;;;;;;;;6.25;5.00;;;;;;;;3518977;39;112181;-71
2021/05/04 08:40:49;;;;;;;;;5.00;4.00;;;;;;;;3517881;39;113779;-71
2021/05/04 08:43:20;;;;;;;;;5.00;5.00;;;;;;;;3516513;39;114574;-71
2021/05/04 08:45:50;;;;;;;;;5.00;5.00;;;;;;;;3518947;39;113071;-72
2021/05/04 08:48:16;;;;;;;;;3.00;3.00;;;;;;;;3517810;39;113499;-72
2021/05/04 08:50:42;;;;;;;;;5.00;3.67;;;;;;;;3518578;39;113019;-73
2021/05/04 08:53:11;;;;;;;;;4.67;4.00;;;;;;;;3518311;39;113514;-70
2021/05/04 08:55:37;;;;;;;;;4.33;4.00;;;;;;;;3517055;39;113837;-72
2021/05/04 08:58:03;;;;;;;;;17.75;17.00;;;;;;;;3517510;39;112518;-73
2021/05/04 09:00:29;;;;;;;;;21.50;20.25;;;;;;;;3519154;39;113428;-70
2021/05/04 09:02:59;;;;;;;;;12.33;12.33;;;;;;;;3518245;39;115079;-71
2021/05/04 09:05:35;;;;;;;;;19.67;15.33;;;;;;;;3519662;39;112656;-71
2021/05/04 09:08:05;;;;;;;;;9.00;8.00;;;;;;;;3520127;39;113174;-72
2021/05/04 09:10:35;;;;;;;;;10.00;8.33;;;;;;;;3516314;39;113891;-72
2021/05/04 19:22:46;;;;;;;;;5.50;5.50;;;;;;;;3570011;39;112476;-73
2021/05/04 19:28:08;;;;;;;;;5.75;4.75;;;;;;;;3569148;39;113253;-70
2021/05/04 19:30:46;;;;;;;;;8.00;7.00;;;;;;;;3572508;39;113328;-71
2021/05/04 20:07:33;;;;;;;;;10.00;8.75;;;;;;;;3559475;39;112286;-73
2021/05/04 20:10:13;;;;;;;;;5.50;4.75;;;;;;;;3560981;39;116166;-72
2021/05/04 20:12:39;;;;;;;;;8.00;5.75;;;;;;;;3557738;39;112081;-72
2021/05/04 20:15:05;;;;;;;;;5.00;5.00;;;;;;;;3561156;39;113360;-71
2021/05/04 20:17:34;;;;;;;;;7.00;5.00;;;;;;;;3561031;39;114791;-70
2021/05/04 20:20:05;;;;;;;;;6.75;6.00;;;;;;;;3562597;39;112255;-70
2021/05/04 20:22:32;;;;;;;;;5.25;5.25;;;;;;;;3555418;39;112713;-70
2021/05/04 20:24:59;;;;;;;;;6.00;5.25;;;;;;;;3558517;39;111974;-70
2021/05/04 20:27:25;;;;;;;;;5.25;5.25;;;;;;;;3560061;39;113494;-71
2021/05/04 20:29:51;;;;;;;;;5.00;4.25;;;;;;;;3558139;39;114315;-71
2021/05/04 20:32:17;;;;;;;;;2.00;2.00;;;;;;;;3558634;39;111887;-71
2021/05/04 20:34:50;;;;;;;;;4.50;4.50;;;;;;;;3559219;39;113535;-69
2021/05/04 20:37:16;;;;;;;;;4.25;4.00;;;;;;;;3558495;39;112848;-70
2021/05/04 20:39:43;;;;;;;;;4.50;4.00;;;;;;;;3559476;39;111737;-70
2021/05/04 20:42:09;;;;;;;;;4.75;3.50;;;;;;;;3560065;39;113629;-71
2021/05/04 20:44:36;;;;;;;;;5.00;5.00;;;;;;;;3557592;39;113266;-69
2021/05/04 20:47:02;;;;;;;;;4.00;4.00;;;;;;;;3557994;39;112252;-70
2021/05/04 20:49:28;;;;;;;;;4.00;4.00;;;;;;;;3559277;39;113869;-70
2021/05/04 20:51:54;;;;;;;;;4.00;4.00;;;;;;;;3558611;39;112151;-71
2021/05/04 20:54:21;;;;;;;;;7.00;5.50;;;;;;;;3558503;39;113195;-69
2021/05/04 20:56:48;;;;;;;;;5.00;4.25;;;;;;;;3558170;39;114121;-69
2021/05/04 20:59:14;;;;;;;;;5.00;4.25;;;;;;;;3557898;39;112413;-69
2021/05/04 21:01:40;;;;;;;;;4.50;4.00;;;;;;;;3559054;39;113128;-69
2021/05/04 21:04:07;;;;;;;;;6.00;5.00;;;;;;;;3559798;39;111824;-69
2021/05/04 21:06:37;;;;;;;;;5.75;5.75;;;;;;;;3558328;39;113255;-71
2021/05/04 21:09:07;;;;;;;;;4.25;4.25;;;;;;;;3557137;39;114507;-71
2021/05/04 21:11:44;;;;;;;;;4.25;4.00;;;;;;;;3561028;39;111836;-69
2021/05/04 21:14:12;;;;;;;;;3.00;2.50;;;;;;;;3557912;39;113728;-69
2021/05/04 21:16:39;;;;;;;;;5.00;5.00;;;;;;;;3558762;39;113792;-70
2021/05/04 21:19:10;;;;;;;;;9.00;5.00;;;;;;;;3557586;39;111814;-70
2021/05/04 21:28:02;;;;;;;;;4.50;4.00;;;;;;;;3567178;39;111982;-67
2021/05/04 21:30:30;;;;;;;;;4.00;4.00;;;;;;;;3566284;39;113587;-68
2021/05/04 21:32:56;;;;;;;;;7.50;5.00;;;;;;;;3566651;39;113866;-68
2021/05/04 21:35:26;;;;;;;;;5.00;5.00;;;;;;;;3569236;39;112122;-69
2021/05/04 21:37:53;;;;;;;;;3.75;3.75;;;;;;;;3566412;39;113417;-68
2021/05/04 21:40:19;;;;;;;;;4.00;4.00;;;;;;;;3565607;39;114426;-68
2021/05/04 21:42:46;;;;;;;;;4.00;4.00;;;;;;;;3573525;39;111957;-68
2021/05/04 21:45:13;;;;;;;;;3.50;3.50;;;;;;;;3566766;39;114469;-68
2021/05/04 21:47:39;;;;;;;;;4.00;4.00;;;;;;;;3565730;39;111793;-69
2021/05/04 21:50:06;;;;;;;;;3.25;3.25;;;;;;;;3567341;39;113835;-69
2021/05/04 21:52:33;;;;;;;;;3.75;3.00;;;;;;;;3564075;39;114402;-68
2021/05/04 21:55:00;;;;;;;;;4.00;4.00;;;;;;;;3565714;39;112138;-69
2021/05/04 21:57:26;;;;;;;;;7.00;4.00;;;;;;;;3563894;39;112727;-71
2021/05/04 21:59:53;;;;;;;;;4.00;4.00;;;;;;;;3564981;39;114151;-68
2021/05/04 22:02:22;;;;;;;;;3.00;3.00;;;;;;;;3565733;39;111777;-69
2021/05/04 22:04:48;;;;;;;;;3.50;3.50;;;;;;;;3567496;39;113648;-69
2021/05/04 22:07:14;;;;;;;;;4.25;4.00;;;;;;;;3566698;39;112528;-70
2021/05/04 22:09:40;;;;;;;;;4.25;4.00;;;;;;;;3565510;39;113870;-69
2021/05/04 22:12:12;;;;;;;;;6.00;5.00;;;;;;;;3566892;39;114327;-70
2021/05/04 22:14:39;;;;;;;;;3.50;3.50;;;;;;;;3563463;39;112082;-70
2021/05/04 22:20:29;;;;;;;;;5.50;4.00;;;;;;;;3566001;39;112689;-69
2021/05/04 22:36:38;;;;;;;;;4.25;4.25;;;;;;;;3558718;39;111816;-69
2021/05/04 22:39:09;;;;;;;;;4.00;4.00;;;;;;;;3560584;39;113160;-71
2021/05/04 22:41:37;;;;;;;;;4.00;3.75;;;;;;;;3558069;39;114225;-70
2021/05/04 22:44:19;;;;;;;;;7.00;4.75;;;;;;;;3560300;39;112153;-69
2021/05/04 22:47:07;;;;;;;;;3.50;3.00;;;;;;;;3556776;39;113317;-69
2021/05/04 23:16:55;;;;;;;;;4.75;4.75;;;;;;;;3561363;39;112557;-69
2021/05/04 23:19:22;;;;;;;;;4.75;4.25;;;;;;;;3559391;39;112192;-69
2021/05/04 23:21:48;;;;;;;;;3.25;3.25;;;;;;;;3559397;39;113274;-70
2021/05/04 23:24:14;;;;;;;;;3.25;3.25;;;;;;;;3556646;39;113150;-69
2021/05/04 23:26:40;;;;;;;;;6.50;4.00;;;;;;;;3559992;39;111814;-69
2021/05/04 23:29:06;;;;;;;;;5.00;5.00;;;;;;;;3558517;39;113484;-69
2021/05/04 23:31:32;;;;;;;;;3.50;3.00;;;;;;;;3558153;39;114082;-71
2021/05/04 23:34:00;;;;;;;;;5.00;5.00;;;;;;;;3562750;39;111945;-69
2021/05/04 23:36:27;;;;;;;;;5.00;4.00;;;;;;;;3560848;39;113719;-69
2021/05/04 23:38:53;;;;;;;;;4.00;4.00;;;;;;;;3562461;39;111973;-68
2021/05/04 23:41:23;;;;;;;;;4.25;3.75;;;;;;;;3559494;39;113239;-67
2021/05/04 23:43:49;;;;;;;;;4.00;3.25;;;;;;;;3558316;39;113942;-68
2021/05/04 23:46:15;;;;;;;;;3.75;3.75;;;;;;;;3559339;39;112204;-69
2021/05/04 23:48:41;;;;;;;;;5.00;5.00;;;;;;;;3558414;39;113573;-69
2021/05/04 23:51:13;;;;;;;;;4.00;4.00;;;;;;;;3559824;39;113988;-70
2021/05/04 23:53:39;;;;;;;;;7.00;6.00;;;;;;;;3556731;39;113065;-68
2021/05/04 23:56:05;;;;;;;;;6.50;6.50;;;;;;;;3560438;39;113353;-68
2021/05/04 23:58:31;;;;;;;;;6.50;5.00;;;;;;;;3560609;39;113814;-68
